createdAt,value
2018-07-13T00:00:44.914Z,41.8
2018-07-13T00:01:35.229Z,41.8
2018-07-13T00:02:25.365Z,41.8
2018-07-13T00:03:15.660Z,41.8
2018-07-13T00:04:05.450Z,41.8
2018-07-13T00:04:55.518Z,41.8
2018-07-13T00:05:45.278Z,41.8
2018-07-13T00:06:35.344Z,41.8
2018-07-13T00:07:25.669Z,41.8
2018-07-13T00:08:16.008Z,41.8
2018-07-13T00:09:05.071Z,41.8
2018-07-13T00:09:56.145Z,41.8
2018-07-13T00:10:46.028Z,41.8
2018-07-13T00:11:35.726Z,41.8
2018-07-13T00:12:26.320Z,41.8
2018-07-13T00:13:16.164Z,41.8
2018-07-13T00:14:06.440Z,41.8
2018-07-13T00:14:56.052Z,41.8
2018-07-13T00:15:46.601Z,41.7
2018-07-13T00:16:35.543Z,41.8
2018-07-13T00:17:26.743Z,41.8
2018-07-13T00:18:16.796Z,41.7
2018-07-13T00:19:06.262Z,41.7
2018-07-13T00:19:56.890Z,41.7
2018-07-13T00:20:46.985Z,41.7
2018-07-13T00:21:37.005Z,41.7
2018-07-13T00:22:27.085Z,41.6
2018-07-13T00:23:17.151Z,41.7
2018-07-13T00:24:06.952Z,41.6
2018-07-13T00:24:56.747Z,41.6
2018-07-13T00:25:46.864Z,41.6
2018-07-13T00:26:37.451Z,41.6
2018-07-13T00:27:27.489Z,41.6
2018-07-13T00:28:17.284Z,41.6
2018-07-13T00:29:06.806Z,41.6
2018-07-13T00:29:57.661Z,41.6
2018-07-13T00:30:46.934Z,41.6
2018-07-13T00:31:36.755Z,41.6
2018-07-13T00:32:27.347Z,41.6
2018-07-13T00:33:17.690Z,41.6
2018-07-13T00:34:07.449Z,41.6
2018-07-13T00:34:57.785Z,41.5
2018-07-13T00:35:47.859Z,41.5
2018-07-13T00:36:37.926Z,41.5
2018-07-13T00:37:27.970Z,41.5
2018-07-13T00:38:17.836Z,41.4
2018-07-13T00:39:07.580Z,41.4
2018-07-13T00:39:58.194Z,41.5
2018-07-13T00:40:47.500Z,41.4
2018-07-13T00:41:38.303Z,41.4
2018-07-13T00:42:27.653Z,41.4
2018-07-13T00:43:18.675Z,41.4
2018-07-13T00:44:08.743Z,41.4
2018-07-13T00:44:58.281Z,41.4
2018-07-13T00:45:48.330Z,41.4
2018-07-13T00:46:38.695Z,41.4
2018-07-13T00:47:28.997Z,41.4
2018-07-13T00:48:18.797Z,41.4
2018-07-13T00:49:09.141Z,41.4
2018-07-13T00:49:59.188Z,41.4
2018-07-13T00:50:48.984Z,41.4
2018-07-13T00:51:38.775Z,41.4
2018-07-13T00:52:29.415Z,41.4
2018-07-13T00:53:19.246Z,41.4
2018-07-13T00:54:09.517Z,41.4
2018-07-13T00:54:59.337Z,41.3
2018-07-13T00:55:48.815Z,41.3
2018-07-13T00:56:39.189Z,41.3
2018-07-13T00:57:28.657Z,41.3
2018-07-13T00:58:19.299Z,41.3
2018-07-13T00:59:09.654Z,41.3
2018-07-13T00:59:59.673Z,41.3
2018-07-13T01:00:49.503Z,41.3
2018-07-13T01:01:39.821Z,41.3
2018-07-13T01:02:29.847Z,41.3
2018-07-13T01:03:19.977Z,41.3
2018-07-13T01:04:10.309Z,41.3
2018-07-13T01:04:59.791Z,41.3
2018-07-13T01:05:49.899Z,41.3
2018-07-13T01:06:40.208Z,41.3
2018-07-13T01:07:30.566Z,41.3
2018-07-13T01:08:20.604Z,41.2
2018-07-13T01:09:10.415Z,41.2
2018-07-13T01:10:00.518Z,41.2
2018-07-13T01:10:50.833Z,41.2
2018-07-13T01:11:40.415Z,41.2
2018-07-13T01:12:30.980Z,41.2
2018-07-13T01:13:20.694Z,41.2
2018-07-13T01:14:10.516Z,41.2
2018-07-13T01:15:01.137Z,41.1
2018-07-13T01:15:50.909Z,41.1
2018-07-13T01:16:40.968Z,41.1
2018-07-13T01:17:31.050Z,41.1
2018-07-13T01:18:21.076Z,41.1
2018-07-13T01:19:11.442Z,41.1
2018-07-13T01:20:01.519Z,41.1
2018-07-13T01:20:51.255Z,41.1
2018-07-13T01:21:40.658Z,41.1
2018-07-13T01:22:31.679Z,41.1
2018-07-13T01:23:21.456Z,41.1
2018-07-13T01:24:11.067Z,41.1
2018-07-13T01:25:01.870Z,41.1
2018-07-13T01:25:50.905Z,41.1
2018-07-13T01:26:41.565Z,41.1
2018-07-13T01:27:31.029Z,41.1
2018-07-13T01:28:21.402Z,41.1
2018-07-13T01:29:12.196Z,41.1
2018-07-13T01:30:02.238Z,41.1
2018-07-13T01:30:52.336Z,41.1
2018-07-13T01:31:42.122Z,41
2018-07-13T01:32:31.904Z,41.1
2018-07-13T01:33:22.479Z,41
2018-07-13T01:34:12.370Z,41
2018-07-13T01:35:02.339Z,41
2018-07-13T01:35:52.689Z,41
2018-07-13T01:36:42.248Z,40.9
2018-07-13T01:37:32.061Z,40.9
2018-07-13T01:38:22.860Z,40.9
2018-07-13T01:39:12.695Z,41
2018-07-13T01:40:02.733Z,40.9
2018-07-13T01:40:52.840Z,40.9
2018-07-13T01:41:43.147Z,40.9
2018-07-13T01:42:32.931Z,40.9
2018-07-13T01:43:22.958Z,40.9
2018-07-13T01:44:12.800Z,40.9
2018-07-13T01:45:02.615Z,40.9
2018-07-13T01:45:53.459Z,40.9
2018-07-13T01:46:43.252Z,40.9
2018-07-13T01:47:33.289Z,40.9
2018-07-13T01:48:23.088Z,40.9
2018-07-13T01:49:13.697Z,40.9
2018-07-13T01:50:03.770Z,40.9
2018-07-13T01:50:53.829Z,40.9
2018-07-13T01:51:43.605Z,40.9
2018-07-13T01:52:33.702Z,40.9
2018-07-13T01:53:24.068Z,40.9
2018-07-13T01:54:13.836Z,40.8
2018-07-13T01:55:03.947Z,40.8
2018-07-13T01:55:53.409Z,40.8
2018-07-13T01:56:44.324Z,40.8
2018-07-13T01:57:34.099Z,40.8
2018-07-13T01:58:23.322Z,40.8
2018-07-13T01:59:14.224Z,40.8
2018-07-13T02:00:04.280Z,40.8
2018-07-13T02:00:54.600Z,40.8
2018-07-13T02:01:44.456Z,40.8
2018-07-13T02:02:34.721Z,40.8
2018-07-13T02:03:24.906Z,40.8
2018-07-13T02:04:14.590Z,40.8
2018-07-13T02:05:05.027Z,40.8
2018-07-13T02:05:55.027Z,40.8
2018-07-13T02:06:44.811Z,40.8
2018-07-13T02:07:35.120Z,40.8
2018-07-13T02:08:24.906Z,40.8
2018-07-13T02:09:14.506Z,40.7
2018-07-13T02:10:05.344Z,40.7
2018-07-13T02:10:55.095Z,40.7
2018-07-13T02:11:45.197Z,40.7
2018-07-13T02:12:35.299Z,40.7
2018-07-13T02:13:24.759Z,40.7
2018-07-13T02:14:15.135Z,40.7
2018-07-13T02:15:04.576Z,40.6
2018-07-13T02:15:55.482Z,40.6
2018-07-13T02:16:44.728Z,40.6
2018-07-13T02:17:35.870Z,40.6
2018-07-13T02:18:25.394Z,40.6
2018-07-13T02:19:15.773Z,40.6
2018-07-13T02:20:05.828Z,40.6
2018-07-13T02:20:55.883Z,40.6
2018-07-13T02:21:46.231Z,40.6
2018-07-13T02:22:35.410Z,40.6
2018-07-13T02:23:25.827Z,40.6
2018-07-13T02:24:16.141Z,40.6
2018-07-13T02:25:06.442Z,40.6
2018-07-13T02:25:55.679Z,40.6
2018-07-13T02:26:46.272Z,40.6
2018-07-13T02:27:36.405Z,40.6
2018-07-13T02:28:26.730Z,40.6
2018-07-13T02:29:16.492Z,40.5
2018-07-13T02:30:06.888Z,40.6
2018-07-13T02:30:56.945Z,40.5
2018-07-13T02:31:46.971Z,40.6
2018-07-13T02:32:37.051Z,40.5
2018-07-13T02:33:26.849Z,40.5
2018-07-13T02:34:16.946Z,40.5
2018-07-13T02:35:06.689Z,40.5
2018-07-13T02:35:57.047Z,40.5
2018-07-13T02:36:46.983Z,40.5
2018-07-13T02:37:37.564Z,40.5
2018-07-13T02:38:27.225Z,40.5
2018-07-13T02:39:17.537Z,40.5
2018-07-13T02:40:07.395Z,40.4
2018-07-13T02:40:57.126Z,40.5
2018-07-13T02:41:46.725Z,40.4
2018-07-13T02:42:37.459Z,40.4
2018-07-13T02:43:27.608Z,40.4
2018-07-13T02:44:17.460Z,40.4
2018-07-13T02:45:07.571Z,40.4
2018-07-13T02:45:57.031Z,40.4
2018-07-13T02:46:47.655Z,40.4
2018-07-13T02:47:37.303Z,40.4
2018-07-13T02:48:28.245Z,40.4
2018-07-13T02:49:16.907Z,40.4
2018-07-13T02:50:07.656Z,40.4
2018-07-13T02:50:57.381Z,40.4
2018-07-13T02:51:47.430Z,40.4
2018-07-13T02:52:38.321Z,40.4
2018-07-13T02:53:27.319Z,40.4
2018-07-13T02:54:18.147Z,40.4
2018-07-13T02:55:08.797Z,40.4
2018-07-13T02:55:58.798Z,40.4
2018-07-13T02:56:48.559Z,40.4
2018-07-13T02:57:38.103Z,40.3
2018-07-13T02:58:28.731Z,40.3
2018-07-13T02:59:19.063Z,40.3
2018-07-13T03:00:08.607Z,40.3
2018-07-13T03:00:58.921Z,40.3
2018-07-13T03:01:48.974Z,40.3
2018-07-13T03:02:39.313Z,40.3
2018-07-13T03:03:29.140Z,40.3
2018-07-13T03:04:19.172Z,40.3
2018-07-13T03:05:08.637Z,40.3
2018-07-13T03:05:59.607Z,40.3
2018-07-13T03:06:49.091Z,40.3
2018-07-13T03:07:38.883Z,40.3
2018-07-13T03:08:28.687Z,40.3
2018-07-13T03:09:19.880Z,40.3
2018-07-13T03:10:09.661Z,40.3
2018-07-13T03:10:59.434Z,40.3
2018-07-13T03:11:49.732Z,40.2
2018-07-13T03:12:40.094Z,40.2
2018-07-13T03:13:29.049Z,40.2
2018-07-13T03:14:19.747Z,40.2
2018-07-13T03:15:09.846Z,40.2
2018-07-13T03:15:59.641Z,40.2
2018-07-13T03:16:49.561Z,40.2
2018-07-13T03:17:40.236Z,40.2
2018-07-13T03:18:29.450Z,40.2
2018-07-13T03:19:20.635Z,40.2
2018-07-13T03:20:10.423Z,40.2
2018-07-13T03:20:59.909Z,40.1
2018-07-13T03:21:49.687Z,40.1
2018-07-13T03:22:40.353Z,40.1
2018-07-13T03:23:30.094Z,40.1
2018-07-13T03:24:20.185Z,40.1
2018-07-13T03:25:25.315Z,40.1
2018-07-13T03:26:01.128Z,40.1
2018-07-13T03:26:50.944Z,40.1
2018-07-13T03:27:40.979Z,40.1
2018-07-13T03:28:30.764Z,40.1
2018-07-13T03:29:21.368Z,40.1
2018-07-13T03:30:11.478Z,40.1
2018-07-13T03:31:01.206Z,40.1
2018-07-13T03:31:50.446Z,40.1
2018-07-13T03:32:41.046Z,40.1
2018-07-13T03:33:30.854Z,40.1
2018-07-13T03:34:21.552Z,40.1
2018-07-13T03:35:11.832Z,40.1
2018-07-13T03:36:01.647Z,40.1
2018-07-13T03:36:51.955Z,40.1
2018-07-13T03:37:41.428Z,40.1
2018-07-13T03:38:31.840Z,40
2018-07-13T19:59:36.849Z,29.8
2018-07-13T20:00:27.212Z,29.9
2018-07-13T20:01:17.259Z,29.8
2018-07-13T20:02:07.431Z,29.8
2018-07-13T20:02:57.853Z,29.8
2018-07-13T20:03:46.955Z,29.8
2018-07-13T20:04:37.257Z,29.8
2018-07-13T20:05:27.030Z,29.8
2018-07-13T20:06:17.677Z,29.8
2018-07-13T20:07:07.435Z,29.8
2018-07-13T20:07:57.779Z,29.8
2018-07-13T20:08:47.890Z,29.8
2018-07-13T20:09:37.110Z,29.8
2018-07-13T20:10:27.449Z,29.8
2018-07-13T20:11:19.052Z,29.8
2018-07-13T20:12:08.140Z,29.8
2018-07-13T20:12:57.752Z,29.8
2018-07-13T20:13:47.715Z,29.8
2018-07-13T20:14:38.398Z,29.8
2018-07-13T20:15:27.927Z,29.8
2018-07-13T20:16:17.962Z,29.8
2018-07-13T20:17:08.675Z,29.8
2018-07-13T20:17:58.316Z,29.8
2018-07-13T20:18:47.837Z,29.7
2018-07-13T20:19:38.456Z,29.8
2018-07-13T20:20:28.227Z,29.8
2018-07-13T20:21:18.364Z,29.7
2018-07-13T20:22:08.347Z,29.7
2018-07-13T20:22:57.861Z,29.7
2018-07-13T20:23:48.761Z,29.7
2018-07-13T20:24:38.385Z,29.7
2018-07-13T20:25:29.185Z,29.7
2018-07-13T20:26:18.714Z,29.7
2018-07-13T20:27:08.519Z,29.7
2018-07-13T20:27:58.835Z,29.6
2018-07-13T20:28:48.885Z,29.7
2018-07-13T20:29:38.746Z,29.6
2018-07-13T20:30:29.059Z,29.7
2018-07-13T20:31:19.306Z,29.6
2018-07-13T20:32:08.909Z,29.6
2018-07-13T20:32:59.245Z,29.6
2018-07-13T20:33:49.287Z,29.7
2018-07-13T20:34:39.844Z,29.6
2018-07-13T20:35:29.598Z,29.6
2018-07-13T20:36:19.688Z,29.6
2018-07-13T20:37:10.114Z,29.6
2018-07-13T20:38:00.152Z,29.6
2018-07-13T20:38:50.170Z,29.6
2018-07-13T20:39:39.957Z,29.6
2018-07-13T20:40:30.287Z,29.6
2018-07-13T20:41:19.891Z,29.6
2018-07-13T20:42:09.951Z,29.6
2018-07-13T20:42:59.448Z,29.6
2018-07-13T20:43:49.484Z,29.6
2018-07-13T20:44:40.383Z,29.6
2018-07-13T20:45:30.707Z,29.6
2018-07-13T20:46:20.776Z,29.6
2018-07-13T20:47:10.574Z,29.6
2018-07-13T20:48:00.051Z,29.6
2018-07-13T20:48:50.679Z,29.6
2018-07-13T20:49:40.785Z,29.6
2018-07-13T20:50:31.110Z,29.5
2018-07-13T20:51:21.122Z,29.6
2018-07-13T20:52:10.664Z,29.6
2018-07-13T20:53:01.022Z,29.5
2018-07-13T20:53:51.101Z,29.5
2018-07-13T20:54:40.864Z,29.6
2018-07-13T20:55:31.484Z,29.5
2018-07-13T20:56:21.254Z,29.6
2018-07-13T20:57:10.772Z,29.5
2018-07-13T20:58:01.371Z,29.5
2018-07-13T20:58:51.488Z,29.5
2018-07-13T20:59:40.984Z,29.5
2018-07-13T21:00:31.880Z,29.5
2018-07-13T21:01:21.387Z,29.5
2018-07-13T21:02:12.239Z,29.5
2018-07-13T21:03:03.021Z,29.5
2018-07-13T21:03:52.100Z,29.5
2018-07-13T21:04:42.148Z,29.5
2018-07-13T21:05:31.699Z,29.4
2018-07-13T21:06:22.322Z,29.5
2018-07-13T21:07:12.045Z,29.4
2018-07-13T21:08:02.149Z,29.4
2018-07-13T21:08:52.466Z,29.4
2018-07-13T21:09:42.570Z,29.4
2018-07-13T21:10:32.311Z,29.4
2018-07-13T21:11:22.643Z,29.4
2018-07-13T21:12:12.465Z,29.4
2018-07-13T21:13:02.517Z,29.4
2018-07-13T21:13:52.827Z,29.4
2018-07-13T21:14:42.697Z,29.4
2018-07-13T21:15:31.689Z,29.4
2018-07-13T21:16:22.309Z,29.4
2018-07-13T21:17:12.088Z,29.4
2018-07-13T21:18:02.453Z,29.4
2018-07-13T21:18:52.697Z,29.4
2018-07-13T21:19:43.196Z,29.4
2018-07-13T21:20:33.393Z,29.4
2018-07-13T21:21:23.528Z,29.4
2018-07-13T21:22:13.610Z,29.4
2018-07-13T21:23:03.358Z,29.4
2018-07-13T21:23:53.665Z,29.4
2018-07-13T21:24:43.213Z,29.4
2018-07-13T21:25:33.528Z,29.4
2018-07-13T21:26:23.931Z,29.3
2018-07-13T21:27:13.949Z,29.3
2018-07-13T21:28:04.021Z,29.3
2018-07-13T21:28:54.094Z,29.4
2018-07-13T21:29:43.374Z,29.3
2018-07-13T21:30:34.223Z,29.3
2018-07-13T21:31:24.236Z,29.3
2018-07-13T21:32:14.304Z,29.3
2018-07-13T21:33:04.409Z,29.3
2018-07-13T21:33:53.894Z,29.3
2018-07-13T21:34:43.413Z,29.3
2018-07-13T21:35:34.156Z,29.3
2018-07-13T21:36:23.665Z,29.3
2018-07-13T21:37:14.400Z,29.3
2018-07-13T21:38:03.639Z,29.3
2018-07-13T21:38:54.785Z,29.3
2018-07-13T21:39:44.344Z,29.3
2018-07-13T21:40:34.182Z,29.3
2018-07-13T21:41:24.221Z,29.3
2018-07-13T21:42:14.539Z,29.3
2018-07-13T21:43:04.144Z,29.3
2018-07-13T21:43:54.705Z,29.3
2018-07-13T21:44:44.497Z,29.3
2018-07-13T21:45:35.078Z,29.3
2018-07-13T21:46:24.832Z,29.3
2018-07-13T21:47:15.418Z,29.3
2018-07-13T21:48:04.213Z,29.3
2018-07-13T21:48:54.806Z,29.3
2018-07-13T21:49:44.868Z,29.3
2018-07-13T21:50:35.729Z,29.3
2018-07-13T21:51:24.730Z,29.3
2018-07-13T21:52:17.261Z,29.2
2018-07-13T21:53:05.044Z,29.2
2018-07-13T21:53:55.947Z,29.3
2018-07-13T21:54:45.476Z,29.2
2018-07-13T21:55:35.779Z,29.2
2018-07-13T21:56:26.133Z,29.3
2018-07-13T21:57:15.950Z,29.2
2018-07-13T21:58:06.284Z,29.2
2018-07-13T21:58:56.388Z,29.2
2018-07-13T21:59:46.404Z,29.2
2018-07-13T22:00:36.488Z,29.2
2018-07-13T22:01:25.734Z,29.2
2018-07-13T22:02:16.083Z,29.2
2018-07-13T22:03:06.801Z,29.2
2018-07-13T22:03:55.938Z,29.2
2018-07-13T22:04:46.869Z,29.2
2018-07-13T22:05:36.373Z,29.2
2018-07-13T22:06:26.979Z,29.1
2018-07-13T22:07:15.966Z,29.2
2018-07-13T22:08:06.496Z,29.2
2018-07-13T22:08:56.830Z,29.1
2018-07-13T22:09:46.640Z,29.2
2018-07-13T22:10:37.280Z,29.2
2018-07-13T22:11:26.772Z,29.2
2018-07-13T22:12:16.883Z,29.2
2018-07-13T22:13:06.803Z,29.2
2018-07-13T22:13:56.386Z,29.1
2018-07-13T22:14:46.547Z,29.1
2018-07-13T22:15:37.397Z,29.1
2018-07-13T22:16:27.413Z,29.1
2018-07-13T22:17:17.762Z,29.1
2018-07-13T22:18:07.820Z,29.1
2018-07-13T22:18:57.610Z,29.1
2018-07-13T22:19:47.698Z,29.1
2018-07-13T22:20:37.579Z,29.1
2018-07-13T22:21:27.633Z,29.1
2018-07-13T22:22:17.953Z,29.1
2018-07-13T22:23:07.489Z,29.1
2018-07-13T22:23:58.885Z,29.1
2018-07-13T22:24:47.825Z,29.1
2018-07-13T22:25:38.569Z,29.1
2018-07-13T22:26:28.989Z,29.1
2018-07-13T22:27:17.946Z,29.1
2018-07-13T22:28:08.566Z,29.1
2018-07-13T22:28:58.116Z,29.1
2018-07-13T22:29:48.731Z,29.1
2018-07-13T22:30:38.778Z,29.1
2018-07-13T22:31:28.572Z,29.1
2018-07-13T22:32:18.627Z,29.1
2018-07-13T22:33:08.435Z,29.1
2018-07-13T22:33:59.042Z,29.1
2018-07-13T22:34:48.538Z,29.1
2018-07-13T22:35:38.622Z,29.1
2018-07-13T22:36:29.227Z,29.1
2018-07-13T22:37:18.219Z,29.1
2018-07-13T22:38:08.821Z,29.1
2018-07-13T22:38:59.417Z,29.1
2018-07-13T22:39:48.996Z,29.1
2018-07-13T22:40:38.436Z,29.1
2018-07-13T22:41:29.626Z,29.1
2018-07-13T22:42:18.893Z,29.1
2018-07-13T22:43:09.737Z,29.1
2018-07-13T22:43:59.570Z,29.1
2018-07-13T22:44:48.550Z,29
2018-07-13T22:45:39.961Z,29
2018-07-13T22:46:29.708Z,29.1
2018-07-13T22:47:18.977Z,29.1
2018-07-13T22:48:09.615Z,29
2018-07-13T22:48:59.937Z,29
2018-07-13T22:49:49.753Z,29
2018-07-13T22:50:39.999Z,29
2018-07-13T22:51:30.112Z,29
2018-07-13T22:52:19.900Z,29
2018-07-13T22:53:10.226Z,29
2018-07-13T22:54:00.080Z,29
2018-07-13T22:54:49.660Z,29
2018-07-13T22:55:40.208Z,29
2018-07-13T22:56:30.004Z,29
2018-07-13T22:57:20.349Z,29
2018-07-13T22:58:09.652Z,29
2018-07-13T22:59:00.471Z,29
2018-07-13T22:59:50.425Z,29
2018-07-13T23:00:40.653Z,29
2018-07-13T23:01:30.428Z,29
2018-07-13T23:02:20.204Z,29
2018-07-13T23:03:09.996Z,29
2018-07-13T23:04:01.374Z,29
2018-07-13T23:04:51.198Z,29
2018-07-13T23:05:41.453Z,29
2018-07-13T23:06:30.731Z,29
2018-07-13T23:07:21.335Z,28.9
2018-07-13T23:08:11.681Z,29
2018-07-13T23:09:00.984Z,28.9
2018-07-13T23:09:51.546Z,28.9
2018-07-13T23:10:41.327Z,28.9
2018-07-13T23:11:31.693Z,28.8
2018-07-13T23:12:21.751Z,28.7
2018-07-13T23:13:11.804Z,28.6
2018-07-13T23:14:02.153Z,28.5
2018-07-13T23:14:51.940Z,28.4
2018-07-13T23:15:42.016Z,28.4
2018-07-13T23:16:32.050Z,28.3
2018-07-13T23:17:21.849Z,28.3
2018-07-13T23:18:12.496Z,28.3
2018-07-13T23:19:01.998Z,28.2
2018-07-13T23:19:51.724Z,28.1
2018-07-13T23:20:42.073Z,28.1
2018-07-13T23:21:32.130Z,28.1
2018-07-13T23:22:22.929Z,28.1
2018-07-13T23:23:12.886Z,28.1
2018-07-13T23:24:03.577Z,28
2018-07-13T23:24:52.732Z,28
2018-07-13T23:25:42.799Z,28
2018-07-13T23:26:32.807Z,27.9
2018-07-13T23:27:22.607Z,27.9
2018-07-13T23:28:12.429Z,27.9
2018-07-13T23:29:02.460Z,27.9
2018-07-13T23:29:53.038Z,27.9
2018-07-13T23:30:42.834Z,27.9
2018-07-13T23:31:33.187Z,27.9
2018-07-13T23:32:23.275Z,27.9
2018-07-13T23:33:13.041Z,27.9
2018-07-13T23:34:53.171Z,27.9
2018-07-13T23:36:33.872Z,27.9
2018-07-13T23:45:43.753Z,27.8
2018-07-13T23:46:33.821Z,27.8
2018-07-13T23:47:24.193Z,27.8
2018-07-13T23:49:04.601Z,27.8
2018-07-13T23:49:54.443Z,27.8
2018-07-13T23:50:43.645Z,27.8
2018-07-13T23:51:34.533Z,27.8
2018-07-13T23:52:24.327Z,27.8
2018-07-13T23:53:14.401Z,27.8
2018-07-13T23:54:03.910Z,27.8
2018-07-13T23:54:54.517Z,27.8
2018-07-13T23:55:44.792Z,27.8
2018-07-13T23:56:35.163Z,27.8
2018-07-13T23:57:25.242Z,27.8
2018-07-13T23:58:15.254Z,27.8
2018-07-13T23:59:05.584Z,27.8
2018-07-13T23:59:55.115Z,27.8
